Time;durP1;ratioP1;P1;durP2;ratioP2;P2;SDS_P1;SDS_P2;PMS_P1;PMS_P2;Temp;Humidity;BMP_temperature;BMP_pressure;BME280_temperature;BME280_humidity;BME280_pressure;Samples;Min_cycle;Max_cycle;Signal;HPM_P1;HPM_P2
2022/08/16 07:06:12;;;;;;;8.73;5.57;;;;;;;19.87;71.04;96025.63;2100304;27;21045;-65
2022/08/16 07:07:15;;;;;;;10.60;5.63;;;;;;;19.93;70.92;96026.88;2087583;28;20651;-65
2022/08/16 07:08:16;;;;;;;12.05;6.50;;;;;;;19.94;70.42;96036.50;2087135;28;20193;-64
2022/08/16 07:09:20;;;;;;;8.32;5.40;;;;;;;20.09;69.75;96018.34;2084399;28;20283;-65
2022/08/16 07:10:22;;;;;;;10.25;5.72;;;;;;;20.13;69.33;96029.50;2087931;28;20196;-65
2022/08/16 07:11:29;;;;;;;13.77;6.13;;;;;;;20.26;69.60;96015.94;2086531;28;20220;-66
2022/08/16 07:28:50;;;;;;;14.00;5.85;;;;;;;21.96;62.49;96018.13;2102853;27;20568;-65
2022/08/16 07:29:52;;;;;;;8.98;5.88;;;;;;;22.20;62.24;96012.16;2098305;28;20639;-65
2022/08/16 07:30:58;;;;;;;7.05;5.00;;;;;;;22.32;62.44;96013.56;2097742;28;20196;-66
2022/08/16 07:32:01;;;;;;;15.07;4.72;;;;;;;22.56;61.27;96017.38;2087907;28;20308;-66
2022/08/16 07:33:04;;;;;;;10.77;4.75;;;;;;;22.61;60.39;96016.91;2095192;28;20195;-67
2022/08/16 07:45:32;;;;;;;11.85;4.90;;;;;;;23.23;56.75;96013.16;2083430;28;20562;-66
2022/08/16 07:46:34;;;;;;;11.77;4.95;;;;;;;23.36;57.14;96012.69;2076295;28;20249;-66
2022/08/16 07:47:42;;;;;;;8.65;5.13;;;;;;;23.39;57.28;96021.19;2075642;28;20313;-66
2022/08/16 07:48:43;;;;;;;10.02;4.93;;;;;;;22.97;58.14;96022.06;2074900;28;20197;-67
2022/08/16 07:49:47;;;;;;;8.52;5.72;;;;;;;23.21;57.51;96020.47;2074923;28;20644;-67
2022/08/16 07:50:58;;;;;;;6.97;5.40;;;;;;;22.64;58.58;96014.75;2075606;28;20201;-67
2022/08/16 08:00:19;;;;;;;9.20;5.13;;;;;;;24.10;53.85;96020.75;2107295;27;20571;-65
2022/08/16 08:01:28;;;;;;;10.23;5.45;;;;;;;24.34;54.55;96029.69;2100328;27;20191;-66
2022/08/16 08:02:31;;;;;;;11.00;5.90;;;;;;;24.20;54.29;96029.41;2095765;28;20203;-66
2022/08/16 08:03:32;;;;;;;9.27;5.13;;;;;;;24.14;54.55;96038.06;2094540;28;20552;-66
2022/08/16 08:04:39;;;;;;;10.18;5.50;;;;;;;23.96;53.99;96040.91;2093073;28;20234;-66
2022/08/16 08:05:41;;;;;;;7.60;4.95;;;;;;;23.90;54.35;96041.56;2095699;28;20199;-67
2022/08/16 08:06:43;;;;;;;10.60;4.53;;;;;;;23.45;54.72;96043.66;2095502;28;20602;-66
2022/08/16 08:07:54;;;;;;;10.00;5.40;;;;;;;23.53;55.03;96033.03;2095201;28;20203;-66
2022/08/16 08:08:59;;;;;;;10.18;5.88;;;;;;;23.76;55.34;96040.38;2094870;28;20282;-67
2022/08/16 08:10:01;;;;;;;11.35;5.32;;;;;;;23.66;54.73;96039.72;2094582;28;20200;-67
2022/08/16 08:11:05;;;;;;;8.07;4.55;;;;;;;23.89;54.57;96040.69;2094396;28;20200;-66
2022/08/16 08:12:10;;;;;;;6.93;5.25;;;;;;;24.00;52.95;96036.06;2095559;28;20306;-67
2022/08/16 08:13:31;;;;;;;10.25;4.93;;;;;;;23.41;55.54;96039.66;2094726;28;20254;-67
2022/08/16 08:14:43;;;;;;;12.73;5.68;;;;;;;23.76;55.13;96037.72;2095720;28;20195;-66
2022/08/16 08:15:47;;;;;;;11.15;5.00;;;;;;;24.51;53.14;96049.19;2093477;28;20286;-67
2022/08/16 08:16:53;;;;;;;8.85;5.40;;;;;;;24.70;51.84;96038.13;2095122;28;20227;-66
2022/08/16 08:17:55;;;;;;;8.93;5.70;;;;;;;25.01;52.24;96045.34;2095596;28;20211;-66
2022/08/16 08:19:16;;;;;;;8.90;5.45;;;;;;;25.27;50.57;96053.09;2095735;28;20306;-66
2022/08/16 08:20:22;;;;;;;8.60;5.05;;;;;;;24.96;50.63;96053.06;2095745;28;20551;-66
2022/08/16 08:21:30;;;;;;;7.45;4.80;;;;;;;24.71;52.52;96045.16;2093880;28;20223;-67
2022/08/16 08:22:53;;;;;;;9.57;5.93;;;;;;;24.97;51.59;96045.91;2093752;28;20203;-66
2022/08/16 08:34:38;;;;;;;11.30;4.65;;;;;;;23.18;55.63;96052.75;2084110;28;20553;-66
2022/08/16 08:35:40;;;;;;;16.33;5.85;;;;;;;23.16;56.09;96052.94;2084372;28;20201;-66
2022/08/16 08:36:41;;;;;;;15.48;4.80;;;;;;;23.26;55.95;96048.28;2076438;28;20221;-66
2022/08/16 08:37:44;;;;;;;9.82;5.85;;;;;;;23.86;55.53;96050.84;2072990;28;20265;-67
2022/08/16 08:38:56;;;;;;;12.77;4.93;;;;;;;22.97;56.15;96044.16;2073768;28;20205;-67
2022/08/16 08:39:59;;;;;;;8.38;5.10;;;;;;;23.15;57.11;96045.94;2076992;28;20232;-66
2022/08/16 08:41:01;;;;;;;10.98;5.18;;;;;;;23.79;55.59;96053.38;2074303;28;20197;-67
2022/08/16 08:42:04;;;;;;;8.93;5.68;;;;;;;23.96;54.78;96062.25;2074075;28;20221;-67
2022/08/16 08:43:09;;;;;;;7.47;5.10;;;;;;;24.34;54.06;96056.38;2074642;28;20197;-67
2022/08/16 08:44:20;;;;;;;8.30;4.75;;;;;;;24.97;52.33;96067.25;2073631;28;20645;-67
2022/08/16 08:45:30;;;;;;;7.82;5.53;;;;;;;24.74;52.43;96063.47;2087082;28;20831;-67
2022/08/16 08:46:56;;;;;;;14.98;5.40;;;;;;;24.86;52.91;96063.13;2080868;28;20264;-66
2022/08/16 08:55:42;;;;;;;9.93;4.90;;;;;;;25.04;51.74;96065.53;2085839;28;20563;-67
2022/08/16 08:56:44;;;;;;;7.18;4.75;;;;;;;25.63;50.30;96064.28;2073289;28;20229;-67
2022/08/16 08:57:46;;;;;;;11.20;4.25;;;;;;;26.14;49.79;96053.88;2069732;28;20194;-67
2022/08/16 08:58:48;;;;;;;7.53;4.85;;;;;;;26.62;49.19;96066.16;2068403;28;20190;-68
2022/08/16 08:59:58;;;;;;;13.60;5.35;;;;;;;25.86;49.33;96057.06;2069832;28;20251;-68
2022/08/16 09:01:01;;;;;;;9.43;4.40;;;;;;;25.19;50.50;96061.16;2071605;28;20240;-68
2022/08/16 09:02:07;;;;;;;10.20;4.93;;;;;;;24.65;50.68;96067.19;2071409;28;20601;-67
2022/08/16 09:03:13;;;;;;;10.45;5.35;;;;;;;24.00;52.79;96063.56;2069325;28;20202;-67
2022/08/16 09:04:16;;;;;;;6.68;5.75;;;;;;;24.26;52.12;96062.56;2070675;28;20235;-68
2022/08/16 09:05:21;;;;;;;9.00;4.82;;;;;;;25.06;50.28;96066.22;2070508;28;20288;-67
2022/08/16 09:06:23;;;;;;;9.55;4.88;;;;;;;24.52;51.37;96066.84;2067322;28;20549;-68
2022/08/16 09:07:26;;;;;;;9.90;4.80;;;;;;;24.56;52.06;96061.00;2068148;28;20585;-68
2022/08/16 09:08:30;;;;;;;9.45;5.10;;;;;;;23.75;53.05;96066.19;2066607;28;20569;-67
2022/08/16 09:09:35;;;;;;;12.77;5.35;;;;;;;24.86;51.63;96068.44;2071058;28;20189;-67
2022/08/16 09:10:41;;;;;;;10.90;5.03;;;;;;;25.61;49.74;96061.78;2067865;28;20202;-68
2022/08/16 09:11:45;;;;;;;10.35;4.70;;;;;;;25.95;48.71;96063.19;2065691;28;20222;-68
2022/08/16 09:12:54;;;;;;;12.52;4.93;;;;;;;25.56;49.89;96069.47;2071075;28;20224;-67
2022/08/16 09:13:57;;;;;;;10.50;5.00;;;;;;;25.55;49.88;96068.66;2067006;28;20289;-68
2022/08/16 09:14:58;;;;;;;7.13;4.93;;;;;;;25.51;49.21;96063.84;2070010;28;20209;-67
2022/08/16 09:16:00;;;;;;;7.18;4.22;;;;;;;25.01;49.96;96065.91;2071753;28;20788;-67
2022/08/16 09:17:03;;;;;;;6.90;4.50;;;;;;;24.78;50.58;96070.16;2070221;28;20312;-68
2022/08/16 09:18:22;;;;;;;10.32;5.72;;;;;;;24.31;51.97;96070.06;2072134;28;20702;-67
2022/08/16 09:19:39;;;;;;;13.15;5.13;;;;;;;24.65;51.13;96072.53;2069580;28;20244;-68
2022/08/16 09:20:42;;;;;;;13.32;5.20;;;;;;;24.70;51.57;96072.03;2069739;28;20190;-67
2022/08/16 09:31:46;;;;;;;13.00;4.82;;;;;;;24.09;51.43;96053.75;2094165;27;20631;-67
2022/08/16 09:32:53;;;;;;;15.25;4.95;;;;;;;24.41;51.54;96062.69;2090368;28;20196;-67
2022/08/16 09:33:55;;;;;;;11.63;5.00;;;;;;;24.51;52.54;96065.19;2088764;28;20192;-68
2022/08/16 09:35:00;;;;;;;9.95;4.85;;;;;;;24.53;51.63;96060.50;2088842;28;20671;-68
2022/08/16 09:36:01;;;;;;;9.63;4.97;;;;;;;24.60;52.51;96056.16;2091728;28;20555;-69
2022/08/16 09:43:28;;;;;;;8.73;4.38;;;;;;;25.29;50.91;96068.94;2107903;27;20550;-67
2022/08/16 09:44:50;;;;;;;11.73;4.55;;;;;;;25.66;50.01;96070.09;2105920;28;20230;-67
2022/08/16 09:46:11;;;;;;;7.18;4.15;;;;;;;26.09;48.08;96069.63;2104811;28;20210;-67
2022/08/16 09:47:39;;;;;;;7.65;4.50;;;;;;;25.68;48.87;96072.59;2097745;28;20195;-67
2022/08/16 09:48:59;;;;;;;7.63;3.92;;;;;;;25.54;49.23;96063.50;2101192;28;20701;-67
2022/08/16 09:50:06;;;;;;;7.22;4.60;;;;;;;26.29;48.10;96074.50;2099247;28;20705;-67
2022/08/16 09:51:12;;;;;;;8.45;4.72;;;;;;;26.17;46.77;96076.75;2098276;28;20191;-67
2022/08/16 09:52:14;;;;;;;8.90;4.38;;;;;;;26.07;48.15;96074.34;2091294;28;20286;-68
2022/08/16 09:53:19;;;;;;;9.00;4.80;;;;;;;27.06;46.35;96081.44;2092127;28;20563;-67
2022/08/16 09:54:22;;;;;;;7.55;4.25;;;;;;;27.45;45.78;96074.94;2087693;28;20200;-67
2022/08/16 09:55:24;;;;;;;8.80;4.80;;;;;;;27.68;43.88;96079.28;2087729;28;20211;-67
2022/08/16 09:56:30;;;;;;;12.82;4.45;;;;;;;27.24;44.82;96073.00;2086899;28;20196;-67
2022/08/16 09:57:32;;;;;;;12.07;4.63;;;;;;;27.17;45.02;96077.44;2091282;28;20207;-68
2022/08/16 09:58:35;;;;;;;6.78;3.85;;;;;;;26.76;46.21;96076.06;2087594;28;20215;-67
2022/08/16 09:59:56;;;;;;;5.07;3.38;;;;;;;25.41;49.74;96072.91;2091283;28;20827;-68
2022/08/16 10:00:58;;;;;;;11.50;4.90;;;;;;;25.99;48.21;96074.38;2091568;28;20196;-67
2022/08/16 10:02:01;;;;;;;12.05;4.78;;;;;;;26.24;48.24;96072.34;2087298;28;20228;-68
2022/08/16 10:03:22;;;;;;;15.75;4.70;;;;;;;25.66;48.41;96061.25;2091173;28;20231;-67
2022/08/16 10:04:25;;;;;;;9.68;4.43;;;;;;;25.69;48.93;96074.28;2091394;28;20643;-68
2022/08/16 10:05:36;;;;;;;8.85;4.90;;;;;;;26.21;48.13;96075.41;2092656;28;20698;-67
2022/08/16 10:06:37;;;;;;;11.25;4.80;;;;;;;26.48;47.08;96065.13;2095313;28;20227;-67
2022/08/16 10:07:51;;;;;;;14.55;4.20;;;;;;;27.61;45.42;96073.03;2098522;28;20549;-66
2022/08/16 10:08:57;;;;;;;4.70;3.25;;;;;;;26.98;45.15;96074.31;2099999;28;20195;-67
2022/08/16 10:10:07;;;;;;;9.02;4.55;;;;;;;25.98;48.02;96068.22;2099660;28;20658;-68
2022/08/16 10:14:11;;;;;;;7.65;4.05;;;;;;;24.71;50.66;96071.84;2099911;28;20286;-68
2022/08/16 10:15:19;;;;;;;10.80;5.20;;;;;;;24.61;50.34;96074.66;2096104;28;20200;-67
2022/08/16 10:16:21;;;;;;;18.08;4.53;;;;;;;25.05;49.28;96072.56;2099459;28;20283;-67
2022/08/16 10:17:24;;;;;;;11.68;4.30;;;;;;;25.54;49.15;96072.34;2102155;28;20195;-67
2022/08/16 10:18:28;;;;;;;13.85;4.50;;;;;;;25.79;48.82;96074.00;2102807;28;20267;-66
2022/08/16 10:19:51;;;;;;;10.25;4.45;;;;;;;25.83;48.85;96076.16;2096374;28;20211;-67
2022/08/16 10:20:54;;;;;;;11.27;4.88;;;;;;;26.01;48.76;96069.69;2096847;28;20196;-66
2022/08/16 10:21:58;;;;;;;9.60;3.97;;;;;;;26.23;48.82;96063.50;2097836;28;20224;-67
2022/08/16 10:23:08;;;;;;;8.35;4.72;;;;;;;25.15;48.79;96077.69;2096455;28;20290;-67
2022/08/16 10:24:18;;;;;;;9.18;4.53;;;;;;;23.96;51.34;96076.41;2096613;28;20219;-68
2022/08/16 10:31:47;;;;;;;6.63;4.80;;;;;;;25.46;50.75;96074.22;2076891;28;20581;-66
2022/08/16 10:32:54;;;;;;;7.30;4.70;;;;;;;25.70;50.24;96075.91;2073885;28;20193;-63
2022/08/16 10:33:56;;;;;;;7.55;4.28;;;;;;;25.87;50.08;96079.31;2066878;28;20193;-64
2022/08/16 10:34:57;;;;;;;8.18;5.43;;;;;;;26.05;50.22;96079.03;2067133;28;20205;-64
2022/08/16 10:36:01;;;;;;;13.13;4.55;;;;;;;26.22;49.76;96083.25;2072468;28;20201;-64
2022/08/16 10:37:04;;;;;;;7.90;4.15;;;;;;;26.38;49.83;96082.25;2072871;28;20316;-64
2022/08/16 10:38:06;;;;;;;11.77;4.70;;;;;;;26.58;48.96;96078.25;2072027;28;20198;-65
2022/08/16 10:39:10;;;;;;;10.68;5.10;;;;;;;26.48;48.47;96079.31;2072584;28;20212;-64
2022/08/16 10:40:11;;;;;;;13.93;4.90;;;;;;;26.47;48.06;96077.66;2082150;28;20193;-63
2022/08/16 10:41:31;;;;;;;99.13;70.32;;;;;;;26.63;48.22;96078.53;2078333;28;20224;-66
2022/08/16 10:42:33;;;;;;;52.75;40.38;;;;;;;26.59;48.23;96083.41;2074169;28;20202;-65
2022/08/16 10:43:35;;;;;;;11.77;5.78;;;;;;;25.95;47.89;96079.25;2073495;28;20248;-66
2022/08/16 10:44:37;;;;;;;30.98;23.65;;;;;;;26.28;48.20;96072.84;2075408;28;20236;-67
2022/08/16 10:45:39;;;;;;;10.85;5.20;;;;;;;25.85;48.00;96087.53;2076559;28;20212;-64
2022/08/16 10:46:42;;;;;;;12.35;4.75;;;;;;;25.45;49.15;96076.06;2075657;28;20610;-66
2022/08/16 10:47:45;;;;;;;8.00;4.40;;;;;;;26.64;47.12;96082.84;2074382;28;20264;-66
2022/08/16 10:48:59;;;;;;;15.00;4.57;;;;;;;26.20;47.00;96082.59;2065135;28;20231;-65
2022/08/16 10:50:06;;;;;;;13.60;4.60;;;;;;;27.34;45.38;96088.78;2065876;28;20201;-65
2022/08/16 10:51:20;;;;;;;9.02;4.93;;;;;;;28.19;43.10;96084.56;2072909;28;20661;-64
2022/08/16 10:52:34;;;;;;;9.75;4.00;;;;;;;28.52;42.99;96085.88;2072410;28;20193;-65
2022/08/16 10:53:40;;;;;;;9.43;4.60;;;;;;;27.77;43.87;96088.03;2073049;28;20201;-65
2022/08/16 10:54:42;;;;;;;8.55;4.50;;;;;;;27.65;44.46;96077.81;2073184;28;20289;-65
2022/08/16 10:56:01;;;;;;;8.93;4.10;;;;;;;28.00;43.01;96094.06;2072165;28;20548;-65
2022/08/16 10:57:04;;;;;;;6.82;4.03;;;;;;;26.84;44.16;96084.03;2068899;28;20245;-66
2022/08/16 10:58:14;;;;;;;8.32;4.10;;;;;;;27.54;43.48;96081.84;2072822;28;20278;-66
2022/08/16 10:59:17;;;;;;;8.00;4.20;;;;;;;28.00;43.14;96083.34;2075268;28;20197;-65
2022/08/16 11:00:39;;;;;;;9.02;4.40;;;;;;;28.13;42.50;96089.88;2070199;28;20646;-65
2022/08/16 11:01:41;;;;;;;9.55;3.42;;;;;;;27.97;43.04;96096.28;2073140;28;20221;-66
2022/08/16 11:02:45;;;;;;;5.70;3.55;;;;;;;28.01;43.33;96090.38;2071397;28;20228;-65
2022/08/16 11:04:06;;;;;;;13.40;4.72;;;;;;;28.36;43.02;96070.88;2072521;28;20640;-66
2022/08/16 11:05:31;;;;;;;6.90;3.55;;;;;;;28.94;42.34;96091.34;2075140;28;20210;-67
2022/08/16 11:06:53;;;;;;;11.43;4.30;;;;;;;26.72;44.14;96080.09;2074850;28;20216;-66
2022/08/16 11:08:16;;;;;;;5.00;3.88;;;;;;;27.39;43.81;96086.41;2074213;28;20196;-67
2022/08/16 11:09:28;;;;;;;8.07;4.38;;;;;;;27.84;42.23;96088.94;2074502;28;20242;-66
2022/08/16 11:10:45;;;;;;;6.38;3.70;;;;;;;27.97;41.78;96081.03;2073063;28;20861;-67
2022/08/16 11:12:06;;;;;;;5.85;3.50;;;;;;;27.48;42.66;96079.91;2073106;28;20229;-67
2022/08/16 11:13:18;;;;;;;7.75;4.55;;;;;;;27.02;43.89;96077.44;2073274;28;20201;-66
2022/08/16 11:14:40;;;;;;;11.38;3.28;;;;;;;27.21;43.42;96079.56;2074042;28;20244;-65
2022/08/16 11:16:02;;;;;;;8.15;3.97;;;;;;;27.48;43.40;96085.25;2073664;28;20576;-69
2022/08/16 11:17:23;;;;;;;12.13;5.95;;;;;;;28.34;42.73;96075.59;2073334;28;20247;-67
2022/08/16 11:18:28;;;;;;;17.15;5.55;;;;;;;28.61;42.46;96073.13;2073021;28;20209;-67
2022/08/16 11:19:49;;;;;;;18.40;13.20;;;;;;;28.32;43.37;96080.34;2073063;28;20209;-66
2022/08/16 11:21:13;;;;;;;19.00;11.63;;;;;;;28.46;43.65;96084.78;2069704;28;20202;-67
2022/08/16 11:22:30;;;;;;;7.88;4.80;;;;;;;28.65;43.09;96082.44;2067286;28;20230;-67
2022/08/16 11:23:48;;;;;;;7.65;4.03;;;;;;;28.71;43.48;96084.38;2071091;28;20222;-68
2022/08/16 11:24:59;;;;;;;11.05;4.80;;;;;;;28.55;43.04;96085.47;2066695;28;20225;-67
2022/08/16 11:26:21;;;;;;;3.70;3.20;;;;;;;29.75;41.28;96079.06;2064208;28;20213;-66
2022/08/16 11:27:25;;;;;;;8.55;4.30;;;;;;;30.01;40.78;96083.72;2065486;28;20210;-67
2022/08/16 11:28:36;;;;;;;5.30;3.37;;;;;;;30.30;39.36;96079.78;2065914;28;20289;-66
2022/08/16 11:29:58;;;;;;;14.33;3.90;;;;;;;30.89;38.86;96084.53;2064676;28;20429;-67
2022/08/16 11:30:59;;;;;;;7.17;3.47;;;;;;;31.15;37.13;96080.97;2064594;28;20660;-66
2022/08/16 11:32:04;;;;;;;6.73;3.83;;;;;;;30.83;37.30;96074.59;2064433;28;20479;-67
2022/08/16 11:33:08;;;;;;;6.60;3.50;;;;;;;30.16;37.94;96079.97;2064072;28;20466;-67
2022/08/16 11:34:14;;;;;;;4.63;3.30;;;;;;;29.83;38.73;96080.72;2065500;28;20451;-67
2022/08/16 11:35:23;;;;;;;8.57;3.50;;;;;;;30.20;39.46;96078.56;2065523;28;20802;-67
2022/08/16 11:36:44;;;;;;;6.80;3.53;;;;;;;28.88;40.39;96070.63;2060938;28;20455;-66
2022/08/16 11:38:06;;;;;;;4.13;2.80;;;;;;;29.40;40.26;96074.63;2071602;28;20848;-66
2022/08/16 11:39:29;;;;;;;7.20;3.90;;;;;;;30.78;38.46;96080.63;2066343;28;20440;-66
2022/08/16 11:40:47;;;;;;;7.93;3.80;;;;;;;31.46;37.28;96078.56;2064512;28;20431;-66
2022/08/16 11:41:53;;;;;;;8.10;3.40;;;;;;;31.06;36.56;96074.16;2062889;28;21092;-66
2022/08/16 11:42:55;;;;;;;7.83;3.50;;;;;;;31.30;37.07;96078.03;2062174;28;20481;-68
2022/08/16 11:43:56;;;;;;;6.40;3.27;;;;;;;31.60;37.28;96077.47;2061220;28;20475;-66
2022/08/16 11:44:58;;;;;;;4.70;3.00;;;;;;;32.18;36.38;96073.84;2061115;28;20433;-66
2022/08/16 11:46:03;;;;;;;7.17;3.17;;;;;;;32.47;35.24;96079.63;2060210;28;21016;-66
2022/08/16 11:47:25;;;;;;;4.27;3.20;;;;;;;32.48;35.10;96073.19;2060372;28;20480;-65
2022/08/16 11:48:29;;;;;;;4.30;3.17;;;;;;;32.10;35.42;96065.13;2060627;28;20420;-66
2022/08/16 11:49:30;;;;;;;4.83;3.13;;;;;;;32.47;34.98;96070.69;2061593;28;20960;-66
2022/08/16 11:50:33;;;;;;;7.23;3.40;;;;;;;32.88;34.13;96072.81;2059471;28;20429;-66
2022/08/16 11:51:35;;;;;;;7.97;3.37;;;;;;;32.47;34.36;96063.44;2060934;28;20456;-67
2022/08/16 11:52:37;;;;;;;4.43;2.90;;;;;;;32.92;34.19;96072.38;2052643;28;20433;-67
2022/08/16 11:53:46;;;;;;;6.30;3.30;;;;;;;31.78;34.98;96065.16;2055293;28;20469;-67
2022/08/16 11:54:49;;;;;;;3.67;2.97;;;;;;;31.36;35.52;96062.84;2062640;28;20428;-68
2022/08/16 11:55:59;;;;;;;4.53;2.90;;;;;;;31.40;35.12;96072.16;2060252;28;20444;-68
2022/08/16 11:57:03;;;;;;;7.83;4.00;;;;;;;29.48;37.83;96071.78;2060455;28;20551;-66
2022/08/16 11:58:10;;;;;;;7.10;4.00;;;;;;;29.94;37.81;96064.88;2059315;28;20524;-67
2022/08/16 11:59:11;;;;;;;8.47;3.00;;;;;;;30.19;36.99;96056.19;2060140;28;20770;-66
2022/08/16 12:00:17;;;;;;;9.20;3.33;;;;;;;29.71;37.77;96050.91;2056907;28;20437;-66
2022/08/16 12:01:38;;;;;;;9.63;3.23;;;;;;;29.96;37.63;96064.66;2055069;28;20500;-66
2022/08/16 12:02:56;;;;;;;7.20;3.50;;;;;;;29.64;39.35;96062.50;2061841;28;20436;-67
2022/08/16 12:03:57;;;;;;;8.77;4.47;;;;;;;29.42;38.13;96063.66;2059912;28;20429;-67
2022/08/16 12:05:00;;;;;;;5.17;3.07;;;;;;;29.45;38.01;96065.97;2058479;28;20428;-66
2022/08/16 12:06:13;;;;;;;4.33;3.50;;;;;;;30.26;36.97;96059.72;2058441;28;20464;-66
2022/08/16 12:07:31;;;;;;;7.33;3.30;;;;;;;31.08;35.61;96067.53;2059591;28;20535;-66
2022/08/16 12:08:34;;;;;;;5.10;2.80;;;;;;;31.52;35.36;96072.31;2059464;28;20429;-66
2022/08/16 12:09:36;;;;;;;10.53;2.90;;;;;;;31.06;35.95;96066.91;2061861;28;20919;-66
2022/08/16 12:10:45;;;;;;;7.93;3.50;;;;;;;31.51;35.66;96076.88;2061394;28;20520;-66
2022/08/16 12:11:47;;;;;;;6.87;2.97;;;;;;;32.56;34.27;96067.50;2058108;28;20465;-66
2022/08/16 12:12:54;;;;;;;5.63;3.17;;;;;;;33.22;33.48;96064.34;2059636;28;20772;-66
2022/08/16 12:14:00;;;;;;;6.93;3.50;;;;;;;33.08;32.62;96065.53;2059753;28;21018;-67
2022/08/16 12:15:06;;;;;;;12.97;3.07;;;;;;;33.59;32.32;96071.63;2060233;28;20452;-67
2022/08/16 12:16:09;;;;;;;6.60;2.70;;;;;;;31.35;34.20;96059.34;2060649;28;20437;-67
2022/08/16 12:17:10;;;;;;;7.07;3.50;;;;;;;30.86;34.95;96060.72;2061130;28;21122;-66
2022/08/16 12:18:12;;;;;;;4.70;2.50;;;;;;;30.32;36.46;96057.22;2061197;28;21171;-66
2022/08/16 12:19:21;;;;;;;6.60;4.23;;;;;;;31.01;36.02;96055.91;2059154;28;20439;-66
2022/08/16 12:20:37;;;;;;;6.87;3.07;;;;;;;32.30;34.27;96056.91;2066946;28;20432;-66
2022/08/16 12:21:39;;;;;;;8.77;3.27;;;;;;;32.02;33.70;96058.13;2065102;28;20962;-67
2022/08/16 12:23:01;;;;;;;4.30;2.70;;;;;;;32.58;33.45;96061.03;2057821;28;20433;-66
2022/08/16 12:24:04;;;;;;;5.20;2.87;;;;;;;32.67;33.50;96044.34;2059123;28;20429;-66
2022/08/16 12:25:09;;;;;;;6.00;3.30;;;;;;;32.96;32.80;96058.19;2062525;28;20780;-66
2022/08/16 12:26:11;;;;;;;3.87;2.60;;;;;;;33.88;32.49;96058.34;2056446;28;20432;-66
2022/08/16 12:27:13;;;;;;;12.80;3.43;;;;;;;34.17;31.72;96062.06;2058931;28;20445;-66
2022/08/16 12:28:15;;;;;;;8.37;3.50;;;;;;;34.11;32.24;96055.69;2056040;28;20422;-66
2022/08/16 12:29:37;;;;;;;4.10;3.27;;;;;;;34.39;31.34;96053.41;2058784;28;20433;-66
2022/08/16 12:30:41;;;;;;;4.73;3.13;;;;;;;33.47;31.18;96055.31;2057608;28;20451;-66
2022/08/16 12:31:43;;;;;;;5.63;3.10;;;;;;;32.15;33.36;96055.34;2058692;28;21558;-66
2022/08/16 12:33:06;;;;;;;7.93;3.13;;;;;;;32.28;33.38;96059.84;2058953;28;20436;-66
2022/08/16 12:34:08;;;;;;;4.20;2.67;;;;;;;31.96;33.18;96050.91;2059758;28;20912;-66
2022/08/16 12:35:20;;;;;;;4.40;2.90;;;;;;;31.82;33.78;96042.06;2060227;28;20452;-66
2022/08/16 12:36:23;;;;;;;8.37;2.80;;;;;;;31.63;33.75;96041.16;2058586;28;20436;-66
2022/08/16 12:37:24;;;;;;;8.93;3.30;;;;;;;32.19;33.70;96047.69;2060577;28;20428;-66
2022/08/16 12:38:29;;;;;;;9.53;3.20;;;;;;;31.21;35.18;96047.78;2060719;28;20514;-66
2022/08/16 12:39:47;;;;;;;5.53;3.20;;;;;;;31.24;34.07;96041.13;2060252;28;20425;-66
2022/08/16 12:40:52;;;;;;;5.50;3.00;;;;;;;31.12;34.93;96035.56;2058889;28;20582;-66
2022/08/16 12:41:57;;;;;;;3.63;3.07;;;;;;;32.07;33.46;96037.56;2055517;28;20549;-66
2022/08/16 12:43:05;;;;;;;6.90;3.07;;;;;;;31.69;34.84;96049.25;2058270;28;20435;-66
2022/08/16 12:44:06;;;;;;;9.83;3.27;;;;;;;32.69;34.09;96052.22;2060260;28;20448;-67
2022/08/16 12:45:13;;;;;;;9.40;3.13;;;;;;;32.14;33.79;96042.06;2060071;28;20591;-66
2022/08/16 12:46:15;;;;;;;7.37;3.80;;;;;;;32.43;33.34;96045.16;2056763;28;20914;-66
2022/08/16 12:48:57;;;;;;;5.80;3.13;;;;;;;32.66;33.45;96039.13;2060724;28;20482;-66
2022/08/16 12:49:59;;;;;;;9.30;3.60;;;;;;;33.74;31.94;96034.16;2060241;28;20835;-66
2022/08/16 12:51:03;;;;;;;4.50;3.20;;;;;;;33.14;31.79;96040.31;2061494;28;20447;-66
2022/08/16 12:52:11;;;;;;;4.80;2.80;;;;;;;32.86;32.88;96030.84;2059104;28;20791;-67
2022/08/16 12:53:34;;;;;;;8.43;3.47;;;;;;;33.28;32.54;96036.44;2060666;28;20461;-67
2022/08/16 12:54:40;;;;;;;9.07;3.33;;;;;;;32.58;32.72;96036.72;2061721;28;20443;-66
2022/08/16 12:55:43;;;;;;;5.00;2.50;;;;;;;31.84;33.32;96038.13;2063085;28;20433;-67
2022/08/16 12:56:45;;;;;;;5.77;2.70;;;;;;;32.08;33.96;96038.38;2061578;28;20459;-67
2022/08/16 12:57:48;;;;;;;3.37;2.60;;;;;;;32.51;32.55;96037.63;2062391;28;20892;-67
2022/08/16 12:59:03;;;;;;;7.50;2.70;;;;;;;31.87;33.08;96036.84;2058419;28;20459;-66
2022/08/16 13:00:12;;;;;;;6.00;2.60;;;;;;;31.77;33.53;96036.50;2059705;28;20425;-67
2022/08/16 13:01:34;;;;;;;3.60;2.60;;;;;;;32.12;33.55;96038.75;2056804;28;20464;-67
2022/08/16 13:02:36;;;;;;;4.83;3.03;;;;;;;32.26;33.22;96034.94;2058342;28;20516;-67
2022/08/16 13:03:39;;;;;;;3.80;2.20;;;;;;;32.06;33.69;96030.50;2057060;28;20918;-67
2022/08/16 13:04:41;;;;;;;5.63;3.00;;;;;;;32.02;32.80;96032.00;2061061;28;20448;-66
2022/08/16 13:05:43;;;;;;;6.67;3.20;;;;;;;32.39;32.48;96034.81;2059627;28;20474;-66
2022/08/16 13:06:57;;;;;;;6.33;2.60;;;;;;;32.51;32.58;96039.50;2059861;28;21078;-67
2022/08/16 13:07:59;;;;;;;5.20;3.30;;;;;;;32.89;31.85;96033.13;2062436;28;20468;-67
2022/08/16 13:09:17;;;;;;;4.20;2.30;;;;;;;33.30;31.22;96028.91;2059896;28;20437;-66
2022/08/16 13:10:20;;;;;;;6.70;2.80;;;;;;;33.27;30.79;96034.75;2059140;28;20441;-67
2022/08/16 13:11:45;;;;;;;3.93;2.73;;;;;;;33.30;31.42;96026.19;2059275;28;20472;-67
2022/08/16 13:12:58;;;;;;;4.70;2.70;;;;;;;31.62;33.45;96034.91;2060556;28;20547;-66
2022/08/16 13:13:59;;;;;;;3.90;2.80;;;;;;;31.86;33.23;96037.94;2059903;28;20437;-67
2022/08/16 13:15:01;;;;;;;4.40;3.03;;;;;;;32.26;32.71;96032.22;2060323;28;20462;-66
2022/08/16 13:16:04;;;;;;;4.27;3.10;;;;;;;32.34;32.89;96034.66;2060627;28;20436;-67
2022/08/16 13:17:23;;;;;;;9.50;3.30;;;;;;;32.61;33.62;96031.72;2060051;28;20491;-66
2022/08/16 13:18:28;;;;;;;4.70;3.57;;;;;;;32.49;33.31;96025.38;2056991;28;20444;-67
2022/08/16 13:19:36;;;;;;;3.83;2.73;;;;;;;33.28;31.85;96017.50;2056683;28;20496;-67
2022/08/16 13:20:57;;;;;;;4.10;2.70;;;;;;;33.92;31.06;96019.75;2056173;28;20461;-67
2022/08/16 13:21:58;;;;;;;4.73;2.97;;;;;;;32.83;32.64;96018.59;2057185;28;20449;-67
2022/08/16 13:23:10;;;;;;;6.17;3.20;;;;;;;32.66;33.05;96023.75;2062265;28;20428;-66
2022/08/16 13:24:11;;;;;;;3.17;2.63;;;;;;;33.03;33.41;96034.59;2062584;28;20919;-67
2022/08/16 13:25:20;;;;;;;8.27;3.20;;;;;;;33.21;32.88;96020.25;2062851;28;20439;-66
2022/08/16 13:26:23;;;;;;;11.87;3.30;;;;;;;33.57;33.28;96019.63;2056531;28;20502;-67
2022/08/16 13:27:26;;;;;;;8.00;3.03;;;;;;;33.31;32.53;96019.75;2056365;28;20437;-67
2022/08/16 13:28:48;;;;;;;5.20;2.50;;;;;;;33.37;31.76;96015.31;2058437;28;20437;-67
2022/08/16 13:29:50;;;;;;;7.53;2.70;;;;;;;33.56;31.41;96015.25;2057489;28;20829;-67
2022/08/16 13:30:59;;;;;;;3.90;2.57;;;;;;;33.53;31.26;96008.41;2059630;28;20515;-66
2022/08/16 13:32:00;;;;;;;3.83;3.00;;;;;;;33.63;31.84;96019.50;2060221;28;20464;-66
2022/08/16 13:33:03;;;;;;;5.00;3.20;;;;;;;33.83;31.69;96013.03;2060834;28;20468;-67
2022/08/16 13:34:14;;;;;;;6.50;3.10;;;;;;;33.18;32.11;96011.78;2058586;28;21185;-68
2022/08/16 13:35:25;;;;;;;6.47;2.90;;;;;;;34.00;30.55;96019.44;2061658;28;20447;-66
2022/08/16 13:36:34;;;;;;;6.07;2.97;;;;;;;33.87;30.49;96010.69;2059912;28;20952;-67
2022/08/16 13:37:49;;;;;;;5.77;2.83;;;;;;;34.14;30.99;96001.06;2052860;28;20445;-67
2022/08/16 13:38:51;;;;;;;4.97;2.93;;;;;;;34.08;30.75;95998.47;2055977;28;20452;-67
2022/08/16 13:39:54;;;;;;;6.57;3.30;;;;;;;34.01;31.37;96014.81;2058587;28;20920;-67
2022/08/16 13:40:56;;;;;;;10.23;3.07;;;;;;;34.05;31.78;96009.78;2057060;28;20465;-67
2022/08/16 13:42:01;;;;;;;4.27;2.90;;;;;;;33.03;32.68;96010.28;2052884;28;20463;-67
2022/08/16 13:43:02;;;;;;;5.70;3.27;;;;;;;33.18;32.26;96004.47;2054598;28;20428;-67
2022/08/16 13:44:04;;;;;;;8.87;3.03;;;;;;;33.93;31.90;96010.56;2055738;28;20429;-67
2022/08/16 13:45:12;;;;;;;5.40;2.90;;;;;;;34.26;31.29;96009.22;2058382;28;20436;-67